»·PEaware :: AAL791 KSFO-KLAS

AAL791 :: KSFO-KLAS

FLIGHT INFORMATION

Flight Status: Arrived
Operator:
American Airlines
More flights by this operator :: More flights under this callsign
Pilot: Chase W. (8260)
Aircraft: MCDONNELL-DOUGLAS MD-82
(MD82)
More flights by this aircraft type
Origin: KSFO San Francisco Intl
United States
Destination: KLAS McCarran Intl
United States
More flights between these airports :: More routes between these airports
Route: + / HYP140016 VISKN Q162 ESSAA BTY SUNST4
File this flight plan on PilotEdge
Remarks:
Altitude:
(Current/Filed)
31,000ft
Speed:
(Current/Filed)
400kts
Departed: 21-Nov-17 05:38 PM
Arrived: 21-Nov-17 06:49 PM
Distance/Time
Traveled:
359nm/1:11
Distance/Time
To Go:
Arrived

Flight Plot

Page will automatically refresh every two minutes.

Flight plan parsing failed; only flown route is shown


Map Options




Map Legend


Flown Route
Filed Route
Departure Airport
Arrival Airport
Navaid (VOR, NDB)
Fix

Horizontal Profiles

Position Reports

Time Latitude Longitude Heading Altitude Ground
Speed
21-Nov-17 17:15 37.618374 -122.382009 144 20ft 0kts
21-Nov-17 17:16 37.618374 -122.382009 144 20ft 0kts
21-Nov-17 17:17 37.618374 -122.382009 144 20ft 0kts
21-Nov-17 17:18 37.618374 -122.382009 144 20ft 0kts
21-Nov-17 17:19 37.618374 -122.382009 144 20ft 0kts
21-Nov-17 17:20 37.618374 -122.382009 144 20ft 0kts
21-Nov-17 17:21 37.618374 -122.382009 144 20ft 0kts
21-Nov-17 17:22 37.618374 -122.382009 144 20ft 0kts
21-Nov-17 17:23 37.618374 -122.382009 144 20ft 0kts
21-Nov-17 17:24 37.618374 -122.382009 144 20ft 0kts
21-Nov-17 17:25 37.618374 -122.382009 144 20ft 0kts
21-Nov-17 17:26 37.618374 -122.382009 144 20ft 0kts
21-Nov-17 17:27 37.618374 -122.382009 144 20ft 0kts
21-Nov-17 17:28 37.618374 -122.382009 144 20ft 0kts
21-Nov-17 17:29 37.618374 -122.382009 144 20ft 0kts
21-Nov-17 17:30 37.618374 -122.382009 144 20ft 0kts
21-Nov-17 17:31 37.618374 -122.382009 144 20ft 0kts
21-Nov-17 17:32 37.618374 -122.382009 144 20ft 0kts
21-Nov-17 17:33 37.618374 -122.382009 144 20ft 0kts
21-Nov-17 17:34 37.618374 -122.382009 144 20ft 0kts
21-Nov-17 17:35 37.618543 -122.382160 144 20ft 2kts
21-Nov-17 17:36 37.618685 -122.382522 60 20ft 1kts
21-Nov-17 17:37 37.619028 -122.382332 27 20ft 2kts
21-Nov-17 17:38 37.619063 -122.382309 27 20ft 0kts
21-Nov-17 17:39 37.619063 -122.382309 27 20ft 0kts
21-Nov-17 17:40 37.618804 -122.380213 132 20ft 24kts
21-Nov-17 17:41 37.612160 -122.382568 207 20ft 16kts
21-Nov-17 17:42 37.609530 -122.383674 126 20ft 12kts
21-Nov-17 17:43 37.623216 -122.372853 26 32ft 161kts
21-Nov-17 17:44 37.669195 -122.362006 357 1503ft 200kts
21-Nov-17 17:45 37.680463 -122.406585 209 3095ft 215kts
21-Nov-17 17:46 37.626846 -122.431313 198 4668ft 221kts
21-Nov-17 17:47 37.567715 -122.450662 197 6250ft 222kts
21-Nov-17 17:48 37.508200 -122.468728 191 7836ft 221kts
21-Nov-17 17:49 37.460607 -122.420050 133 9473ft 240kts
21-Nov-17 17:50 37.428146 -122.349782 108 11030ft 247kts
21-Nov-17 17:51 37.412528 -122.272097 109 12506ft 243kts
21-Nov-17 17:52 37.396978 -122.195078 110 13995ft 232kts
21-Nov-17 17:53 37.388654 -122.156551 108 14828ft 220kts
21-Nov-17 17:54 37.376046 -122.098219 104 16131ft 196kts
21-Nov-17 17:55 37.364074 -122.039923 104 17059ft 181kts
21-Nov-17 17:56 37.350466 -121.973868 104 18236ft 250kts
21-Nov-17 17:57 37.330172 -121.875680 104 20045ft 335kts
21-Nov-17 17:58 37.306935 -121.763751 104 22031ft 346kts
21-Nov-17 17:59 37.282670 -121.647482 104 24002ft 357kts
21-Nov-17 18:00 37.257513 -121.527554 104 25977ft 368kts
21-Nov-17 18:01 37.236706 -121.428893 104 27559ft 378kts
21-Nov-17 18:02 37.210749 -121.306423 105 29471ft 390kts
21-Nov-17 18:03 37.182658 -121.174685 105 30975ft 416kts
21-Nov-17 18:04 37.150001 -121.022328 105 31030ft 475kts
21-Nov-17 18:05 37.115894 -120.864312 105 31014ft 473kts
21-Nov-17 18:06 37.081763 -120.707318 105 31000ft 472kts
21-Nov-17 18:07 37.047384 -120.550325 105 31000ft 472kts
21-Nov-17 18:08 37.012827 -120.393674 105 31000ft 472kts
21-Nov-17 18:09 36.979527 -120.243842 105 31000ft 472kts
21-Nov-17 18:10 36.984143 -120.087405 77 31141ft 475kts
21-Nov-17 18:11 37.012348 -119.927899 77 31008ft 472kts
21-Nov-17 18:12 37.040201 -119.769033 77 31003ft 472kts
21-Nov-17 18:13 37.067608 -119.611307 77 31017ft 473kts
21-Nov-17 18:14 37.094571 -119.454735 77 31023ft 473kts
21-Nov-17 18:15 37.116013 -119.329189 78 31025ft 473kts
21-Nov-17 18:16 37.147634 -119.142286 78 31030ft 473kts
21-Nov-17 18:17 37.174146 -118.984132 78 31034ft 473kts
21-Nov-17 18:18 37.196186 -118.851614 78 31038ft 473kts
21-Nov-17 18:19 37.226945 -118.665037 78 31043ft 473kts
21-Nov-17 18:20 37.248826 -118.531131 78 31046ft 473kts
21-Nov-17 18:21 37.274733 -118.371294 78 31051ft 473kts
21-Nov-17 18:22 37.299462 -118.217639 78 31055ft 473kts
21-Nov-17 18:23 37.325167 -118.056314 78 31059ft 473kts
21-Nov-17 18:24 37.347519 -117.894202 91 30949ft 473kts
21-Nov-17 18:25 37.336327 -117.730178 96 31086ft 473kts
21-Nov-17 18:26 37.321786 -117.567828 96 31066ft 473kts
21-Nov-17 18:27 37.306833 -117.403947 96 31075ft 473kts
21-Nov-17 18:28 37.263393 -117.255814 125 31063ft 473kts
21-Nov-17 18:29 37.184913 -117.124090 127 31091ft 473kts
21-Nov-17 18:30 37.105562 -116.994242 127 31091ft 473kts
21-Nov-17 18:31 37.006030 -116.890791 149 31136ft 474kts
21-Nov-17 18:32 36.892360 -116.811095 150 31102ft 473kts
21-Nov-17 18:33 36.786749 -116.723800 135 31113ft 471kts
21-Nov-17 18:34 36.699145 -116.602785 130 31121ft 473kts
21-Nov-17 18:35 36.612863 -116.480184 130 31107ft 473kts
21-Nov-17 18:36 36.527151 -116.358776 130 30962ft 466kts
21-Nov-17 18:37 36.445657 -116.243771 131 29145ft 444kts
21-Nov-17 18:38 36.365969 -116.131681 131 26000ft 431kts
21-Nov-17 18:39 36.293494 -116.030080 131 22328ft 371kts
21-Nov-17 18:40 36.228699 -115.939499 131 18584ft 341kts
21-Nov-17 18:41 36.183265 -115.844071 112 15790ft 305kts
21-Nov-17 18:42 36.152932 -115.751621 111 15746ft 287kts
21-Nov-17 18:43 36.122708 -115.657970 111 14956ft 305kts
21-Nov-17 18:44 36.092533 -115.564586 111 13730ft 292kts
21-Nov-17 18:45 36.063184 -115.474040 111 11879ft 279kts
21-Nov-17 18:46 36.036156 -115.390905 111 10474ft 269kts
21-Nov-17 18:47 36.027699 -115.310826 97 8922ft 249kts
21-Nov-17 18:48 36.021030 -115.234023 95 8723ft 208kts
21-Nov-17 18:49 36.016411 -115.170191 94 8230ft 189kts
21-Nov-17 18:50 36.011942 -115.104867 94 7192ft 195kts
21-Nov-17 18:51 36.028621 -115.050844 24 5801ft 183kts
21-Nov-17 18:52 36.071726 -115.045076 300 3507ft 175kts
21-Nov-17 18:53 36.073663 -115.098000 271 2454ft 150kts
21-Nov-17 18:54 36.073634 -115.141107 270 2148ft 26kts
21-Nov-17 18:55 36.074719 -115.145941 304 2148ft 0kts
21-Nov-17 18:56 36.077193 -115.146587 350 2148ft 22kts

Navigation Log

Ident Type
Flight plan parsing failed, navigation log unavailable